Time;durP1;ratioP1;P1;durP2;ratioP2;P2;SDS_P1;SDS_P2;PMS_P1;PMS_P2;Temp;Humidity;BMP_temperature;BMP_pressure;BME280_temperature;BME280_humidity;BME280_pressure;Samples;Min_cycle;Max_cycle;Signal;HPM_P1;HPM_P2
2021/12/13 00:00:55;;;;;;;24.85;5.07;;;;;;;12.62;70.41;102415.88;5123575;28;21441;-43
2021/12/13 00:03:32;;;;;;;25.75;6.70;;;;;;;12.63;70.60;102429.97;5128083;28;20420;-48
2021/12/13 00:06:13;;;;;;;26.98;6.28;;;;;;;12.64;70.36;102426.38;5128682;28;20435;-44
2021/12/13 00:08:52;;;;;;;35.20;7.43;;;;;;;12.41;70.32;102394.59;5125761;28;20404;-47
2021/12/13 00:11:28;;;;;;;24.45;5.82;;;;;;;12.59;70.37;102428.53;5121622;28;20788;-44
2021/12/13 00:14:09;;;;;;;28.00;6.05;;;;;;;12.61;70.30;102432.75;5126772;28;21108;-45
2021/12/13 00:16:47;;;;;;;30.57;6.83;;;;;;;12.59;70.35;102436.47;5122258;28;20503;-46
2021/12/13 00:19:24;;;;;;;33.97;6.38;;;;;;;12.57;70.43;102427.81;5127652;28;20474;-45
2021/12/13 00:22:02;;;;;;;23.38;5.43;;;;;;;12.54;70.35;102430.69;5122011;28;20435;-43
2021/12/13 00:24:39;;;;;;;29.55;5.50;;;;;;;12.55;70.50;102429.75;5127390;28;20412;-46
2021/12/13 00:27:15;;;;;;;21.70;5.30;;;;;;;12.44;70.35;102420.84;5118138;28;20507;-49
2021/12/13 00:29:55;;;;;;;25.80;5.10;;;;;;;12.54;70.35;102436.00;5127699;28;20420;-43
2021/12/13 00:32:36;;;;;;;26.98;5.43;;;;;;;12.54;70.30;102422.75;5131765;28;20438;-44
2021/12/13 00:35:13;;;;;;;28.77;5.68;;;;;;;12.56;70.30;102423.47;5126661;28;20424;-44
2021/12/13 00:37:49;;;;;;;18.70;4.10;;;;;;;12.57;70.17;102427.81;5123683;28;20459;-45
2021/12/13 00:40:28;;;;;;;19.35;4.05;;;;;;;12.57;70.28;102433.09;5126700;28;20527;-43
2021/12/13 00:43:07;;;;;;;13.98;3.20;;;;;;;12.57;70.20;102441.06;5125413;28;20442;-45
2021/12/13 00:45:49;;;;;;;15.43;3.33;;;;;;;12.45;70.29;102433.16;5127024;28;20416;-43
2021/12/13 00:48:25;;;;;;;16.45;3.90;;;;;;;12.43;70.37;102435.06;5127840;28;20408;-45
2021/12/13 00:51:04;;;;;;;21.05;3.60;;;;;;;12.50;70.40;102439.88;5126477;28;20450;-44
2021/12/13 00:53:41;;;;;;;14.23;3.50;;;;;;;12.50;70.43;102446.00;5126097;28;20878;-45
2021/12/13 00:56:48;;;;;;;17.75;3.28;;;;;;;12.51;70.31;102441.53;5126332;28;20431;-45
2021/12/13 00:59:27;;;;;;;9.33;2.60;;;;;;;12.49;70.39;102435.53;5125208;28;20514;-49
2021/12/13 01:02:08;;;;;;;9.63;3.00;;;;;;;12.45;70.24;102441.09;5129459;28;20781;-44
2021/12/13 01:05:01;;;;;;;15.95;3.10;;;;;;;12.46;70.06;102447.22;5126548;28;20423;-42
2021/12/13 01:08:11;;;;;;;16.83;3.33;;;;;;;12.48;70.20;102452.38;5126232;28;20768;-44
2021/12/13 01:11:15;;;;;;;10.10;2.38;;;;;;;12.44;70.34;102462.41;5122315;28;20438;-44
2021/12/13 01:14:17;;;;;;;10.60;2.88;;;;;;;12.46;70.22;102449.88;5123901;28;20943;-43
2021/12/13 01:17:00;;;;;;;10.18;2.72;;;;;;;12.48;70.28;102458.56;5125121;28;20412;-44
2021/12/13 01:19:50;;;;;;;14.40;2.83;;;;;;;12.45;70.18;102461.47;5123526;28;20765;-43
2021/12/13 01:28:26;;;;;;;10.02;2.35;;;;;;;12.49;70.11;102480.59;5133829;28;20431;-43
2021/12/13 01:31:05;;;;;;;8.50;2.35;;;;;;;12.46;70.01;102466.63;5130159;28;20428;-42
2021/12/13 01:33:43;;;;;;;8.05;2.58;;;;;;;12.46;70.12;102465.78;5127349;28;20420;-49
2021/12/13 01:36:23;;;;;;;6.43;2.10;;;;;;;12.44;70.00;102471.19;5119195;28;20435;-43
2021/12/13 01:39:04;;;;;;;9.05;2.60;;;;;;;12.46;69.83;102482.50;5125295;28;20516;-45
2021/12/13 01:41:42;;;;;;;4.60;1.90;;;;;;;12.49;69.82;102480.59;5125035;28;20427;-46
2021/12/13 01:44:20;;;;;;;5.85;2.13;;;;;;;12.45;69.72;102470.25;5125751;28;20434;-43
2021/12/13 01:46:58;;;;;;;5.80;2.38;;;;;;;12.50;69.82;102477.81;5126886;28;20468;-43
2021/12/13 01:49:37;;;;;;;9.45;2.70;;;;;;;12.50;69.75;102476.97;5126172;28;20381;-44
2021/12/13 01:52:19;;;;;;;8.77;3.47;;;;;;;12.50;69.70;102480.47;5123394;28;20913;-43
2021/12/13 01:54:55;;;;;;;9.38;3.65;;;;;;;12.48;69.57;102478.88;5123263;28;20444;-43
2021/12/13 01:57:40;;;;;;;8.07;4.10;;;;;;;12.48;69.61;102474.47;5125503;28;20428;-43
2021/12/13 02:00:19;;;;;;;7.50;3.55;;;;;;;12.45;69.51;102470.25;5123259;28;20432;-48
2021/12/13 02:02:54;;;;;;;8.25;3.30;;;;;;;12.41;69.48;102468.78;5127101;28;20415;-43
2021/12/13 02:05:30;;;;;;;6.72;3.47;;;;;;;12.29;69.46;102437.97;5127555;28;20419;-44
2021/12/13 02:08:08;;;;;;;5.00;2.38;;;;;;;12.42;69.34;102465.19;5125619;28;20423;-42
2021/12/13 02:10:47;;;;;;;4.07;1.70;;;;;;;12.43;69.49;102461.56;5120335;28;20438;-41
2021/12/13 02:13:23;;;;;;;9.25;2.22;;;;;;;12.42;69.30;102470.47;5126611;28;20527;-42
2021/12/13 02:18:57;;;;;;;6.80;2.10;;;;;;;12.43;69.19;102456.25;5125044;28;20412;-46
2021/12/13 02:21:35;;;;;;;11.48;2.67;;;;;;;12.46;69.08;102474.56;5124506;28;20455;-42
2021/12/13 02:24:12;;;;;;;9.33;2.43;;;;;;;12.50;68.91;102479.63;5125196;28;20548;-43
2021/12/13 02:26:48;;;;;;;5.32;2.20;;;;;;;12.37;68.82;102462.06;5122246;28;20442;-43
2021/12/13 02:29:36;;;;;;;4.90;2.25;;;;;;;12.45;68.95;102475.53;5125900;28;20439;-46
2021/12/13 02:32:11;;;;;;;8.60;2.20;;;;;;;12.39;68.67;102462.78;5126290;28;20482;-43
2021/12/13 02:34:44;;;;;;;7.03;2.60;;;;;;;12.40;68.74;102472.41;5127404;28;20909;-44
2021/12/13 02:37:16;;;;;;;13.23;2.78;;;;;;;12.39;68.75;102481.31;5123275;28;20416;-43
2021/12/13 02:39:58;;;;;;;8.38;2.92;;;;;;;12.38;68.68;102476.97;5124190;28;20448;-47
2021/12/13 02:42:32;;;;;;;10.45;3.38;;;;;;;12.33;68.65;102465.91;5120660;28;20848;-51
2021/12/13 02:45:14;;;;;;;7.30;2.47;;;;;;;12.35;68.63;102468.44;5126732;28;20903;-45
2021/12/13 02:48:01;;;;;;;9.65;3.00;;;;;;;12.29;68.54;102475.03;5125693;28;20808;-43
2021/12/13 02:50:47;;;;;;;12.45;3.97;;;;;;;12.28;68.53;102478.66;5126361;28;20422;-44
2021/12/13 02:53:26;;;;;;;5.88;3.20;;;;;;;12.27;68.45;102482.28;5128162;28;20592;-44
2021/12/13 02:56:00;;;;;;;10.93;3.33;;;;;;;12.18;68.30;102467.13;5129449;28;20424;-45
2021/12/13 02:58:38;;;;;;;7.47;3.87;;;;;;;12.25;68.35;102484.22;5129897;28;21007;-53
2021/12/13 03:01:18;;;;;;;6.97;3.53;;;;;;;12.27;68.31;102476.16;5127652;28;20467;-44
2021/12/13 03:03:56;;;;;;;10.15;4.35;;;;;;;12.23;68.39;102483.47;5123816;28;20913;-44
2021/12/13 03:06:33;;;;;;;9.82;4.50;;;;;;;12.21;68.36;102480.97;5126762;28;20909;-44
2021/12/13 03:09:12;;;;;;;8.15;4.53;;;;;;;12.18;68.35;102478.56;5127803;28;20414;-47
2021/12/13 03:11:47;;;;;;;8.50;4.38;;;;;;;12.18;68.18;102477.72;5124502;28;20412;-45
2021/12/13 03:14:25;;;;;;;8.85;4.53;;;;;;;12.20;68.25;102481.06;5129498;28;20897;-45
2021/12/13 03:17:03;;;;;;;9.32;4.57;;;;;;;12.18;68.22;102477.72;5128733;28;20431;-44
2021/12/13 03:19:58;;;;;;;12.52;4.50;;;;;;;12.15;68.15;102473.50;5128456;28;20428;-45
2021/12/13 03:23:08;;;;;;;10.05;5.15;;;;;;;12.13;68.12;102477.22;5128861;28;22140;-44
2021/12/13 03:26:09;;;;;;;11.57;4.30;;;;;;;12.08;68.20;102472.31;5126864;28;20436;-43
2021/12/13 03:29:04;;;;;;;8.65;3.65;;;;;;;12.05;68.21;102472.53;5126810;28;20500;-43
2021/12/13 03:31:41;;;;;;;10.80;4.10;;;;;;;12.05;68.03;102483.13;5126922;28;20408;-43
2021/12/13 03:34:19;;;;;;;8.10;4.20;;;;;;;12.06;68.08;102473.38;5125738;28;20507;-42
2021/12/13 03:37:00;;;;;;;9.45;4.07;;;;;;;12.05;67.96;102472.53;5129109;28;20420;-44
2021/12/13 03:39:39;;;;;;;9.88;4.70;;;;;;;11.94;68.01;102481.28;5127393;28;20413;-44
2021/12/13 03:42:17;;;;;;;8.55;4.40;;;;;;;11.96;68.08;102466.16;5128769;28;20432;-48
2021/12/13 03:44:55;;;;;;;10.82;5.07;;;;;;;12.00;68.04;102478.19;5127483;28;20448;-44
2021/12/13 03:47:35;;;;;;;12.30;5.03;;;;;;;12.00;67.94;102464.94;5128449;28;20434;-44
2021/12/13 03:50:12;;;;;;;9.18;5.80;;;;;;;12.00;67.92;102470.22;5131012;28;20423;-44
2021/12/13 03:52:49;;;;;;;18.85;6.47;;;;;;;11.98;68.01;102461.59;5124101;28;20427;-45
2021/12/13 03:55:26;;;;;;;12.50;6.13;;;;;;;11.96;68.11;102463.50;5124263;28;20507;-44
2021/12/13 03:58:05;;;;;;;13.82;6.30;;;;;;;11.91;67.99;102465.66;5126949;28;20434;-45
2021/12/13 04:00:46;;;;;;;11.00;6.77;;;;;;;11.90;67.98;102463.97;5127709;28;20796;-45
2021/12/13 04:03:22;;;;;;;8.65;6.13;;;;;;;11.88;68.04;102460.59;5123663;28;20526;-46
2021/12/13 04:05:56;;;;;;;13.82;6.25;;;;;;;11.90;68.08;102453.38;5128505;28;20440;-44
2021/12/13 04:08:29;;;;;;;12.60;6.40;;;;;;;11.92;67.96;102446.16;5127999;28;20420;-43
2021/12/13 04:11:06;;;;;;;12.18;7.20;;;;;;;11.93;67.91;102458.44;5127416;28;20515;-43
2021/12/13 04:13:43;;;;;;;12.68;7.30;;;;;;;11.92;67.96;102454.13;5128898;28;20426;-43
2021/12/13 04:16:30;;;;;;;13.82;7.68;;;;;;;11.94;67.95;102454.81;5125668;28;20482;-43
2021/12/13 04:19:08;;;;;;;13.38;7.35;;;;;;;11.95;67.87;102456.53;5127157;28;20506;-43
2021/12/13 04:21:48;;;;;;;11.75;7.10;;;;;;;11.92;67.84;102462.06;5127351;28;20531;-44
2021/12/13 04:24:34;;;;;;;9.68;6.80;;;;;;;11.82;67.78;102460.19;5122039;28;20408;-45
2021/12/13 04:27:15;;;;;;;12.60;8.18;;;;;;;11.92;67.85;102462.06;5122213;28;20430;-44
2021/12/13 04:29:51;;;;;;;10.13;8.07;;;;;;;11.92;67.78;102462.06;5126301;28;20430;-42
2021/12/13 04:32:29;;;;;;;12.65;7.82;;;;;;;11.87;67.92;102456.25;5125934;28;20434;-44
2021/12/13 04:35:07;;;;;;;11.93;7.30;;;;;;;11.86;67.88;102457.25;5126935;28;20412;-43
2021/12/13 04:37:44;;;;;;;11.75;8.50;;;;;;;11.87;67.89;102463.38;5128354;28;20396;-45
2021/12/13 04:40:21;;;;;;;13.07;8.82;;;;;;;11.86;67.93;102462.53;5122784;28;20411;-44
2021/12/13 04:43:00;;;;;;;19.83;9.20;;;;;;;11.86;67.88;102467.81;5128231;28;20442;-45
2021/12/13 04:45:34;;;;;;;21.33;10.30;;;;;;;11.84;67.76;102459.13;5126452;28;20815;-43
2021/12/13 04:48:12;;;;;;;15.15;9.93;;;;;;;11.82;67.80;102455.72;5130240;28;20913;-47
2021/12/13 04:50:51;;;;;;;17.52;10.98;;;;;;;11.83;67.81;102468.03;5124781;28;20511;-45
2021/12/13 04:53:27;;;;;;;17.65;10.40;;;;;;;11.84;67.74;102459.13;5126750;28;20436;-45
2021/12/13 04:56:04;;;;;;;23.45;10.13;;;;;;;11.84;67.75;102464.41;5125374;28;20424;-45
2021/12/13 04:58:38;;;;;;;16.23;11.05;;;;;;;11.82;67.83;102466.31;5127693;28;20500;-44
2021/12/13 05:01:14;;;;;;;14.38;9.95;;;;;;;11.78;67.79;102459.59;5126826;28;20834;-45
2021/12/13 05:03:53;;;;;;;14.40;9.75;;;;;;;11.82;67.77;102474.25;5122778;28;20424;-44
2021/12/13 05:06:30;;;;;;;16.23;10.60;;;;;;;11.76;67.82;102457.03;5126706;28;20551;-44
2021/12/13 05:09:07;;;;;;;17.50;10.50;;;;;;;11.81;67.78;102469.94;5126186;28;20876;-42
2021/12/13 05:11:45;;;;;;;15.52;10.98;;;;;;;11.85;67.69;102468.75;5120363;28;20416;-44
2021/12/13 05:14:29;;;;;;;16.65;10.30;;;;;;;11.80;67.70;102462.97;5124519;28;20421;-43
2021/12/13 05:17:13;;;;;;;13.48;10.45;;;;;;;11.87;67.69;102474.78;5125494;28;22806;-43
2021/12/13 05:19:51;;;;;;;19.20;10.85;;;;;;;11.84;67.74;102479.47;5121665;28;20966;-43
2021/12/13 05:22:24;;;;;;;14.32;10.70;;;;;;;11.82;67.67;102476.91;5126653;28;20427;-43
2021/12/13 05:25:00;;;;;;;18.35;10.43;;;;;;;11.83;67.77;102477.75;5125106;28;20511;-44
2021/12/13 05:27:36;;;;;;;18.95;11.13;;;;;;;11.84;67.41;102485.59;5124182;28;22011;-44
2021/12/13 05:30:19;;;;;;;18.40;10.77;;;;;;;11.79;67.56;102477.16;5126851;28;20841;-44
2021/12/13 05:32:58;;;;;;;17.42;10.32;;;;;;;11.86;67.50;102483.72;5124195;28;20420;-44
2021/12/13 05:35:38;;;;;;;15.57;10.33;;;;;;;11.75;67.58;102470.41;5123669;28;20467;-43
2021/12/13 05:38:23;;;;;;;14.32;10.15;;;;;;;11.81;67.53;102483.19;5128320;28;20412;-43
2021/12/13 05:40:56;;;;;;;17.10;10.65;;;;;;;11.84;67.63;102475.00;5122486;28;20470;-43
2021/12/13 05:43:33;;;;;;;18.25;10.52;;;;;;;11.79;67.59;102482.44;5126028;28;20426;-51
2021/12/13 05:46:09;;;;;;;13.98;9.95;;;;;;;11.82;67.66;102482.22;5126281;28;20504;-43
2021/12/13 05:48:48;;;;;;;17.20;9.88;;;;;;;11.82;67.49;102482.22;5126199;28;20454;-40
2021/12/13 05:51:35;;;;;;;12.90;9.98;;;;;;;11.80;67.54;102481.50;5123633;28;20412;-43
2021/12/13 05:54:11;;;;;;;13.55;9.93;;;;;;;11.70;67.46;102469.91;5127606;28;20522;-42
2021/12/13 05:56:53;;;;;;;13.75;10.20;;;;;;;11.52;67.63;102443.03;5122538;28;20770;-44
2021/12/13 05:59:31;;;;;;;17.77;9.18;;;;;;;11.78;67.50;102478.13;5122090;28;20428;-47
2021/12/13 06:02:12;;;;;;;16.98;9.65;;;;;;;11.78;67.49;102480.75;5127673;28;20509;-42
2021/12/13 06:05:00;;;;;;;17.55;9.88;;;;;;;11.75;67.54;102487.13;5123330;28;20436;-44
2021/12/13 06:07:37;;;;;;;14.77;9.45;;;;;;;11.76;67.57;102488.81;5120664;28;20412;-43
2021/12/13 06:10:13;;;;;;;12.07;8.88;;;;;;;11.76;67.52;102501.19;5129000;28;20430;-44
2021/12/13 06:12:51;;;;;;;10.23;7.57;;;;;;;11.75;67.61;102494.22;5121752;28;20777;-47
2021/12/13 06:15:29;;;;;;;12.48;8.30;;;;;;;11.77;67.47;102495.81;5125597;28;20454;-51
2021/12/13 06:18:22;;;;;;;12.15;8.82;;;;;;;11.79;67.37;102500.97;5125638;28;20477;-44
2021/12/13 06:21:07;;;;;;;13.90;8.18;;;;;;;11.82;67.25;102500.75;5124250;28;20431;-46
2021/12/13 06:23:41;;;;;;;12.95;8.00;;;;;;;11.84;67.15;102504.13;5130890;28;20422;-46
2021/12/13 06:26:15;;;;;;;13.02;7.65;;;;;;;11.81;67.11;102501.72;5127870;28;20495;-44
2021/12/13 06:29:01;;;;;;;11.88;7.53;;;;;;;11.81;67.35;102501.72;5129796;28;20437;-44
2021/12/13 06:31:39;;;;;;;12.05;7.53;;;;;;;11.80;67.37;102500.03;5124910;28;20761;-45
2021/12/13 06:34:15;;;;;;;12.87;7.53;;;;;;;11.82;67.14;102497.25;5133015;28;20848;-45
2021/12/13 06:36:52;;;;;;;11.45;7.30;;;;;;;11.84;67.02;102500.63;5128759;28;20435;-44
2021/12/13 06:39:31;;;;;;;16.88;8.10;;;;;;;11.87;67.00;102503.91;5128813;28;20450;-44
2021/12/13 06:42:08;;;;;;;11.63;7.38;;;;;;;11.87;67.07;102501.28;5130741;28;20490;-44
2021/12/13 06:44:45;;;;;;;15.18;7.45;;;;;;;11.86;67.00;102504.88;5128892;28;20430;-44
2021/12/13 06:47:48;;;;;;;7.68;6.85;;;;;;;11.85;67.06;102508.47;5128473;28;20438;-43
2021/12/13 06:50:25;;;;;;;13.45;7.18;;;;;;;11.83;67.02;102509.50;5126598;28;20436;-44
2021/12/13 06:53:14;;;;;;;14.60;6.97;;;;;;;11.77;66.94;102501.09;5132321;28;20920;-43
2021/12/13 06:55:48;;;;;;;9.43;6.80;;;;;;;11.81;66.93;102512.28;5129042;28;20885;-44
2021/12/13 06:58:29;;;;;;;13.80;7.30;;;;;;;11.81;66.84;102512.28;5127364;28;20776;-44
2021/12/13 07:01:07;;;;;;;12.23;6.97;;;;;;;11.83;66.80;102518.31;5128026;28;20412;-43
2021/12/13 07:03:40;;;;;;;13.68;7.88;;;;;;;11.83;66.98;102518.31;5128980;28;20426;-45
2021/12/13 07:06:20;;;;;;;12.40;6.80;;;;;;;11.83;66.71;102520.97;5127987;28;20427;-47
2021/12/13 07:09:14;;;;;;;12.05;6.90;;;;;;;11.81;66.84;102517.59;5129602;28;20420;-43
2021/12/13 07:11:52;;;;;;;10.15;6.78;;;;;;;11.81;66.72;102522.03;5125957;28;20825;-43
2021/12/13 07:14:38;;;;;;;13.55;7.18;;;;;;;11.79;66.87;102511.56;5132796;28;20515;-44
2021/12/13 07:17:17;;;;;;;11.20;6.67;;;;;;;11.77;66.75;102526.72;5133037;28;20458;-43
2021/12/13 07:19:52;;;;;;;10.60;6.55;;;;;;;11.75;66.80;102533.94;5132241;28;20653;-43
2021/12/13 07:22:27;;;;;;;9.38;6.68;;;;;;;11.75;66.79;102528.66;5130859;28;20508;-46
2021/12/13 07:25:10;;;;;;;11.13;6.55;;;;;;;11.73;66.75;102525.25;5130527;28;20518;-42
2021/12/13 07:27:50;;;;;;;10.38;6.22;;;;;;;11.79;66.57;102530.09;5127885;28;20430;-43
2021/12/13 07:30:26;;;;;;;11.40;6.80;;;;;;;11.78;66.50;102528.41;5130610;28;20434;-43
2021/12/13 07:33:03;;;;;;;12.88;6.63;;;;;;;11.78;66.54;102539.00;5129217;28;20904;-44
2021/12/13 07:35:40;;;;;;;14.27;6.70;;;;;;;11.78;66.58;102539.84;5129507;28;20424;-43
2021/12/13 07:38:25;;;;;;;10.52;6.35;;;;;;;11.68;66.58;102530.91;5129200;28;20431;-46
2021/12/13 07:41:07;;;;;;;8.80;6.80;;;;;;;11.77;66.56;102550.56;5128722;28;20428;-43
2021/12/13 07:43:44;;;;;;;10.75;7.00;;;;;;;11.81;66.36;102556.47;5130575;28;20503;-43
2021/12/13 07:46:31;;;;;;;10.35;6.35;;;;;;;11.81;66.41;102554.66;5128380;28;20404;-44
2021/12/13 07:49:09;;;;;;;10.63;7.07;;;;;;;11.81;66.38;102559.94;5129972;28;20442;-42
2021/12/13 07:51:49;;;;;;;11.60;7.18;;;;;;;11.83;66.36;102544.81;5128508;28;20404;-42
2021/12/13 07:54:22;;;;;;;13.80;7.28;;;;;;;11.81;66.34;102549.34;5131003;28;20432;-44
2021/12/13 07:56:59;;;;;;;12.65;6.97;;;;;;;11.80;66.37;102552.09;5127525;28;20433;-43
2021/12/13 07:59:36;;;;;;;10.38;7.50;;;;;;;11.82;66.34;102555.50;5131533;28;20796;-43
2021/12/13 08:02:11;;;;;;;12.63;7.43;;;;;;;11.84;66.18;102556.22;5130365;28;20796;-45
2021/12/13 08:04:48;;;;;;;12.35;7.80;;;;;;;11.87;66.14;102564.81;5128607;28;20451;-44
2021/12/13 08:07:25;;;;;;;10.25;7.03;;;;;;;11.77;66.21;102558.50;5131716;28;20459;-43
2021/12/13 08:10:01;;;;;;;16.60;7.68;;;;;;;11.82;66.23;102556.31;5133804;28;20423;-44
2021/12/13 08:12:39;;;;;;;11.48;7.85;;;;;;;11.84;66.17;102566.81;5132706;28;20421;-43
2021/12/13 08:15:17;;;;;;;13.48;7.90;;;;;;;11.82;66.06;102553.69;5129706;28;20771;-42
2021/12/13 08:17:53;;;;;;;17.07;8.67;;;;;;;11.82;66.12;102561.63;5125296;28;20890;-43
2021/12/13 08:20:30;;;;;;;14.83;8.80;;;;;;;11.82;66.07;102563.44;5132180;28;20430;-44
2021/12/13 08:23:04;;;;;;;18.17;8.70;;;;;;;11.79;66.04;102567.16;5132576;28;20550;-45
2021/12/13 08:25:40;;;;;;;14.10;8.32;;;;;;;11.83;65.99;102568.63;5126242;28;20455;-44
2021/12/13 08:28:18;;;;;;;14.38;8.48;;;;;;;11.82;65.95;102566.91;5129029;28;20901;-46
2021/12/13 08:30:55;;;;;;;20.08;8.50;;;;;;;11.81;66.12;102570.53;5129619;28;20460;-44
2021/12/13 08:33:33;;;;;;;14.88;9.55;;;;;;;11.77;66.06;102583.16;5128956;28;20423;-43
2021/12/13 08:36:09;;;;;;;17.33;10.05;;;;;;;11.81;66.06;102589.06;5113353;28;20423;-44
2021/12/13 08:38:47;;;;;;;14.00;9.75;;;;;;;11.83;65.96;102581.88;5129406;28;20419;-41
2021/12/13 08:41:29;;;;;;;17.63;9.85;;;;;;;11.85;65.74;102592.34;5128845;28;20507;-42
2021/12/13 08:44:05;;;;;;;15.30;9.30;;;;;;;11.85;65.84;102593.19;5129212;28;20424;-42
2021/12/13 08:46:45;;;;;;;17.25;10.23;;;;;;;11.85;65.78;102584.41;5126962;28;20412;-43
2021/12/13 08:49:35;;;;;;;16.02;10.45;;;;;;;11.87;65.88;102593.94;5127194;28;20424;-43
2021/12/13 08:52:22;;;;;;;16.23;9.85;;;;;;;11.86;65.77;102605.50;5119972;28;20916;-47
2021/12/13 08:55:07;;;;;;;18.67;11.15;;;;;;;11.88;65.85;102608.84;5124869;28;20832;-47
2021/12/13 08:57:50;;;;;;;14.50;10.65;;;;;;;11.83;65.73;102599.53;5125090;28;20421;-42
2021/12/13 09:00:46;;;;;;;16.48;10.52;;;;;;;11.88;65.81;102623.91;5125633;28;20408;-47
2021/12/13 09:03:38;;;;;;;17.45;11.57;;;;;;;11.88;65.77;102624.72;5122799;28;20419;-44
2021/12/13 09:06:28;;;;;;;21.70;12.40;;;;;;;11.87;65.71;102622.22;5122279;28;20527;-47
2021/12/13 09:09:09;;;;;;;19.13;11.17;;;;;;;11.84;65.82;102625.06;5126479;28;20470;-45
2021/12/13 09:11:48;;;;;;;18.57;11.23;;;;;;;11.84;65.88;102620.59;5127144;28;20468;-45
2021/12/13 09:14:24;;;;;;;18.48;12.25;;;;;;;11.78;65.78;102611.31;5123325;28;20422;-44
2021/12/13 09:17:11;;;;;;;24.77;11.95;;;;;;;11.86;65.80;102621.38;5126627;28;20778;-44
2021/12/13 09:19:56;;;;;;;21.10;12.80;;;;;;;11.91;65.83;102635.09;5121229;28;20433;-47
2021/12/13 09:22:33;;;;;;;17.52;11.82;;;;;;;11.91;65.80;102632.44;5125499;28;20439;-45
2021/12/13 09:25:12;;;;;;;17.63;11.02;;;;;;;11.93;65.77;102638.47;5129136;28;20420;-44
2021/12/13 09:27:50;;;;;;;21.65;13.20;;;;;;;11.96;65.75;102648.84;5125153;28;20426;-45
2021/12/13 09:30:40;;;;;;;18.60;11.73;;;;;;;12.03;65.69;102649.22;5129034;28;20427;-43
2021/12/13 09:33:20;;;;;;;21.02;12.00;;;;;;;12.11;65.66;102656.59;5121284;28;20470;-42
2021/12/13 09:35:58;;;;;;;17.45;12.75;;;;;;;12.14;65.41;102659.00;5128131;28;20412;-44
2021/12/13 09:38:45;;;;;;;20.48;12.10;;;;;;;12.16;65.38;102667.69;5127798;28;20432;-43
2021/12/13 09:41:35;;;;;;;22.30;12.73;;;;;;;12.17;65.41;102669.38;5123435;28;20899;-44
2021/12/13 09:44:24;;;;;;;18.70;11.85;;;;;;;12.19;65.52;102662.16;5128176;28;20900;-43
2021/12/13 09:47:05;;;;;;;18.73;12.93;;;;;;;12.18;65.57;102669.25;5127812;28;20431;-46
2021/12/13 09:49:45;;;;;;;17.60;11.75;;;;;;;12.21;65.45;102652.31;5127444;28;20440;-43
2021/12/13 09:52:29;;;;;;;20.60;11.63;;;;;;;12.19;65.47;102660.34;5125050;28;20785;-44
2021/12/13 09:55:08;;;;;;;16.40;11.30;;;;;;;12.23;65.06;102666.25;5130933;28;20442;-46
2021/12/13 09:57:51;;;;;;;20.47;11.80;;;;;;;12.25;65.28;102666.16;5127150;28;20432;-45
2021/12/13 10:00:30;;;;;;;20.17;11.80;;;;;;;12.25;65.44;102667.00;5125307;28;20432;-46
2021/12/13 10:03:10;;;;;;;17.40;11.77;;;;;;;12.29;65.30;102655.19;5130157;28;20459;-44
2021/12/13 10:05:47;;;;;;;20.52;11.13;;;;;;;12.33;65.13;102659.31;5125907;28;20480;-47
2021/12/13 10:08:26;;;;;;;18.10;12.30;;;;;;;12.37;65.20;102655.47;5127925;28;20442;-43
2021/12/13 10:11:05;;;;;;;17.30;12.65;;;;;;;12.41;65.25;102653.41;5127246;28;20526;-43
2021/12/13 10:13:41;;;;;;;21.40;11.30;;;;;;;12.46;65.22;102656.56;5130381;28;20968;-45
2021/12/13 10:16:19;;;;;;;18.57;10.97;;;;;;;12.49;65.15;102655.50;5118053;28;20900;-50
2021/12/13 10:18:54;;;;;;;21.45;11.25;;;;;;;12.53;65.12;102651.63;5130158;28;20450;-46
2021/12/13 10:21:30;;;;;;;17.38;10.80;;;;;;;12.54;65.23;102658.63;5131885;28;20513;-44
2021/12/13 10:24:11;;;;;;;22.08;10.90;;;;;;;12.54;65.01;102658.63;5130854;28;24665;-48
2021/12/13 10:26:47;;;;;;;16.50;10.93;;;;;;;12.56;65.07;102675.25;5126576;28;20772;-46
2021/12/13 10:29:20;;;;;;;18.65;11.75;;;;;;;12.59;65.03;102651.16;5128197;28;20430;-42
2021/12/13 10:31:57;;;;;;;17.75;11.07;;;;;;;12.67;64.84;102654.09;5127465;28;20424;-44
2021/12/13 10:34:35;;;;;;;19.45;11.00;;;;;;;12.74;64.78;102657.09;5128377;28;20765;-44
2021/12/13 10:37:16;;;;;;;16.23;10.65;;;;;;;12.82;64.63;102666.16;5125919;28;20416;-44
2021/12/13 10:39:55;;;;;;;26.27;10.47;;;;;;;12.81;64.67;102667.09;5122849;28;20412;-45
2021/12/13 10:42:33;;;;;;;18.10;10.70;;;;;;;12.80;64.61;102670.72;5124591;28;20606;-45
2021/12/13 10:45:10;;;;;;;19.48;10.38;;;;;;;12.83;64.58;102665.16;5125681;28;20420;-44
2021/12/13 10:47:49;;;;;;;20.55;10.23;;;;;;;12.86;64.54;102670.25;5126145;28;20428;-44
2021/12/13 10:50:25;;;;;;;16.35;11.15;;;;;;;12.86;64.44;102670.25;5125853;28;20412;-47
2021/12/13 10:52:58;;;;;;;19.27;11.88;;;;;;;12.88;64.39;102664.78;5127697;28;20430;-45
2021/12/13 10:55:39;;;;;;;19.13;11.63;;;;;;;12.89;64.37;102663.84;5127669;28;20441;-49
2021/12/13 10:58:14;;;;;;;19.60;11.00;;;;;;;12.87;64.43;102663.97;5126293;28;20419;-44
2021/12/13 11:00:55;;;;;;;22.58;12.63;;;;;;;12.89;64.40;102658.56;5123046;28;20424;-45
2021/12/13 11:03:31;;;;;;;21.85;12.38;;;;;;;12.93;64.25;102659.97;5129541;28;20415;-45
2021/12/13 11:06:07;;;;;;;20.27;11.93;;;;;;;12.97;64.02;102660.59;5127922;28;20956;-43
2021/12/13 11:08:42;;;;;;;23.70;12.02;;;;;;;13.01;64.02;102656.75;5127589;28;20432;-44
2021/12/13 11:11:22;;;;;;;19.20;11.02;;;;;;;13.06;64.09;102655.41;5124270;28;20407;-45
2021/12/13 11:13:59;;;;;;;22.53;12.17;;;;;;;13.12;63.73;102656.72;5128841;28;20449;-44
2021/12/13 11:16:35;;;;;;;24.63;11.93;;;;;;;13.15;63.94;102667.94;5127337;28;20951;-45
2021/12/13 11:19:11;;;;;;;26.85;14.05;;;;;;;13.16;63.74;102671.41;5125989;28;21532;-44
2021/12/13 11:21:48;;;;;;;25.90;13.90;;;;;;;13.18;63.76;102673.97;5122546;28;21022;-50
2021/12/13 11:24:25;;;;;;;32.08;14.02;;;;;;;13.17;63.83;102665.16;5126789;28;20906;-43
2021/12/13 11:27:03;;;;;;;27.13;13.80;;;;;;;13.24;63.63;102671.66;5127982;28;20436;-45
2021/12/13 11:29:37;;;;;;;23.20;13.23;;;;;;;13.24;63.30;102669.00;5127845;28;20448;-46
2021/12/13 11:33:21;;;;;;;22.33;13.52;;;;;;;13.22;63.51;102665.63;5128853;28;20491;-44
2021/12/13 11:36:40;;;;;;;27.27;14.40;;;;;;;13.18;63.57;102669.50;5128491;28;20547;-44
2021/12/13 11:39:42;;;;;;;19.50;12.98;;;;;;;13.20;63.55;102672.88;5127359;28;20409;-47
2021/12/13 11:43:05;;;;;;;24.65;13.60;;;;;;;13.16;63.54;102663.47;5120648;28;20778;-48
2021/12/13 11:46:12;;;;;;;24.88;12.63;;;;;;;13.22;63.57;102665.63;5123619;28;20916;-45
2021/12/13 11:49:20;;;;;;;22.17;13.98;;;;;;;13.28;63.32;102664.31;5119630;28;20432;-50
2021/12/13 11:52:24;;;;;;;28.42;14.75;;;;;;;13.34;63.22;102664.69;5123646;28;20416;-46
2021/12/13 11:55:35;;;;;;;22.63;13.85;;;;;;;13.11;63.21;102624.06;5126530;28;21217;-44
2021/12/13 11:58:39;;;;;;;19.92;12.77;;;;;;;13.45;63.00;102655.88;5126192;28;20748;-47
2021/12/13 12:01:49;;;;;;;21.73;12.95;;;;;;;13.40;63.01;102665.16;5121528;28;20467;-46
2021/12/13 12:05:15;;;;;;;21.88;13.18;;;;;;;13.32;63.22;102663.97;5125936;28;20950;-47
2021/12/13 12:08:35;;;;;;;20.33;13.00;;;;;;;13.38;63.17;102667.97;5120344;28;21070;-44
2021/12/13 12:11:36;;;;;;;23.00;13.63;;;;;;;13.50;62.95;102668.75;5117223;28;20773;-43
2021/12/13 12:14:12;;;;;;;24.13;13.38;;;;;;;13.50;62.86;102658.13;5121140;28;20429;-48
2021/12/13 12:16:50;;;;;;;24.98;13.38;;;;;;;13.52;62.92;102657.03;5119527;28;20408;-44
2021/12/13 12:19:26;;;;;;;20.60;12.80;;;;;;;13.50;62.79;102658.13;5121424;28;20443;-45
2021/12/13 12:22:02;;;;;;;23.83;13.57;;;;;;;13.44;62.74;102653.31;5124766;28;20972;-44
2021/12/13 12:24:38;;;;;;;24.30;13.05;;;;;;;13.38;62.83;102655.53;5125187;28;20414;-45
2021/12/13 12:27:13;;;;;;;21.57;12.47;;;;;;;13.38;62.73;102652.03;5123796;28;20423;-44